createdAt,value
2018-11-04T00:01:06.488Z,101218.47
2018-11-04T00:03:33.930Z,101217.16
2018-11-04T00:06:01.390Z,101210.30
2018-11-04T00:08:29.060Z,101210.59
2018-11-04T00:10:56.596Z,101212.58
2018-11-04T00:13:24.117Z,101211.27
2018-11-04T00:15:51.615Z,101213.44
2018-11-04T00:18:19.095Z,101208.75
2018-11-04T00:20:46.587Z,101207.61
2018-11-04T00:23:14.111Z,101207.33
2018-11-04T00:25:41.698Z,101213.82
2018-11-04T00:28:09.201Z,101206.68
2018-11-04T00:30:36.789Z,101200.89
2018-11-04T00:33:04.616Z,101206.43
2018-11-04T00:35:32.069Z,101200.10
2018-11-04T00:37:59.537Z,101205.19
2018-11-04T00:40:27.425Z,101203.58
2018-11-04T00:42:54.901Z,101198.41
2018-11-04T00:45:22.410Z,101195.48
2018-11-04T00:47:49.833Z,101191.47
2018-11-04T00:50:17.339Z,101184.52
2018-11-04T00:52:45.143Z,101180.67
2018-11-04T00:55:13.128Z,101185.56
2018-11-04T00:57:40.871Z,101174.09
2018-11-04T01:00:17.574Z,101171.95
2018-11-04T01:02:46.234Z,101170.80
2018-11-04T01:05:13.762Z,101160.76
2018-11-04T01:07:41.272Z,101160.27
2018-11-04T01:10:10.056Z,101147.33
2018-11-04T01:12:37.908Z,101154.73
2018-11-04T01:15:06.735Z,101149.02
2018-11-04T01:17:34.386Z,101146.10
2018-11-04T01:20:01.965Z,101135.30
2018-11-04T01:22:29.697Z,101133.62
2018-11-04T01:24:57.189Z,101137.19
2018-11-04T01:27:24.643Z,101120.46
2018-11-04T01:29:52.131Z,101119.34
2018-11-04T01:32:19.702Z,101114.81
2018-11-04T01:34:47.256Z,101110.95
2018-11-04T01:37:14.795Z,101114.53
2018-11-04T01:39:42.487Z,101110.87
2018-11-04T01:42:09.945Z,101099.89
2018-11-04T01:44:37.399Z,101097.13
2018-11-04T01:47:05.234Z,101095.64
2018-11-04T01:49:32.714Z,101091.48
2018-11-04T01:52:00.208Z,101089.06
2018-11-04T01:54:27.756Z,101084.34
2018-11-04T01:56:55.338Z,101085.48
2018-11-04T01:59:22.908Z,101078.99
2018-11-04T02:01:50.736Z,101072.33
2018-11-04T02:04:18.173Z,101066.11
2018-11-04T02:06:45.740Z,101063.85
2018-11-04T02:09:13.436Z,101059.32
2018-11-04T02:11:40.954Z,101057.91
2018-11-04T02:14:08.441Z,101053.33
2018-11-04T02:16:36.200Z,101048.92
2018-11-04T02:19:03.824Z,101038.40
2018-11-04T02:21:31.319Z,101041.77
2018-11-04T02:23:58.865Z,101043.45
2018-11-04T02:26:26.456Z,101033.78
2018-11-04T02:28:54.025Z,101030.66
2018-11-04T02:31:21.493Z,101031.52
2018-11-04T02:33:49.013Z,101030.92
2018-11-04T02:36:16.602Z,101033.37
2018-11-04T02:38:44.131Z,101036.95
2018-11-04T02:41:11.661Z,101025.34
2018-11-04T02:43:39.352Z,101026.07
2018-11-04T02:46:07.004Z,101022.40
2018-11-04T02:48:34.470Z,101026.44
2018-11-04T02:51:02.264Z,101019.30
2018-11-04T02:53:29.797Z,101023.03
2018-11-04T02:55:57.469Z,101020.22
2018-11-04T02:58:24.977Z,101016.28
2018-11-04T03:00:52.535Z,101017.13
2018-11-04T03:03:20.013Z,101011.41
2018-11-04T03:05:47.466Z,101008.23
2018-11-04T03:08:14.948Z,101007.87
2018-11-04T03:10:42.513Z,101007.29
2018-11-04T03:13:09.989Z,101009.37
2018-11-04T03:15:37.475Z,101008.33
2018-11-04T03:18:04.948Z,101011.72
2018-11-04T03:20:32.423Z,100998.81
2018-11-04T03:22:59.904Z,100994.86
2018-11-04T03:25:27.412Z,100998.63
2018-11-04T03:27:54.883Z,100994.67
2018-11-04T03:30:22.381Z,100995.04
2018-11-04T03:32:50.108Z,100987.97
2018-11-04T03:35:17.604Z,100986.02
2018-11-04T03:37:45.097Z,100982.66
2018-11-04T03:40:13.337Z,100982.78
2018-11-04T03:42:41.436Z,100983.02
2018-11-04T03:45:09.561Z,100984.70
2018-11-04T03:47:37.053Z,100985.47
2018-11-04T03:50:06.491Z,100981.03
2018-11-04T03:52:33.929Z,100974.81
2018-11-04T03:55:01.473Z,100974.27
2018-11-04T03:57:28.983Z,100970.31
2018-11-04T03:59:56.461Z,100972.00
2018-11-04T04:02:24.060Z,100970.59
2018-11-04T04:04:51.500Z,100967.47
2018-11-04T04:07:18.961Z,100965.56
2018-11-04T04:09:46.441Z,100966.42
2018-11-04T04:12:13.953Z,100966.15
2018-11-04T04:14:41.463Z,100964.20
2018-11-04T04:17:08.943Z,100962.83
2018-11-04T04:19:36.427Z,100963.05
2018-11-04T04:22:04.372Z,100961.73
2018-11-04T04:24:31.823Z,100960.66
2018-11-04T04:26:59.285Z,100958.16
2018-11-04T04:29:26.705Z,100950.45
2018-11-04T04:31:54.136Z,100954.30
2018-11-04T04:34:21.556Z,100947.05
2018-11-04T04:36:49.010Z,100948.14
2018-11-04T04:39:16.427Z,100950.31
2018-11-04T04:41:43.945Z,100948.05
2018-11-04T04:44:11.372Z,100947.00
2018-11-04T04:46:38.948Z,100946.36
2018-11-04T04:49:06.529Z,100945.05
2018-11-04T04:51:34.087Z,100943.38
2018-11-04T04:54:01.586Z,100944.19
2018-11-04T04:56:29.065Z,100938.93
2018-11-04T04:58:56.665Z,100942.42
2018-11-04T05:01:24.132Z,100939.88
2018-11-04T05:03:51.746Z,100933.67
2018-11-04T05:06:19.350Z,100942.10
2018-11-04T05:08:46.790Z,100939.47
2018-11-04T05:11:14.358Z,100940.56
2018-11-04T05:13:41.824Z,100932.67
2018-11-04T05:16:09.256Z,100939.64
2018-11-04T05:18:36.854Z,100939.52
2018-11-04T05:21:04.368Z,100935.11
2018-11-04T05:23:31.876Z,100933.06
2018-11-04T05:25:59.444Z,100934.25
2018-11-04T05:28:27.094Z,100931.75
2018-11-04T05:30:54.616Z,100933.98
2018-11-04T05:33:22.086Z,100933.16
2018-11-04T05:35:50.000Z,100926.95
2018-11-04T05:38:17.553Z,100921.22
2018-11-04T05:40:45.075Z,100915.96
2018-11-04T05:43:12.530Z,100915.01
2018-11-04T05:45:40.004Z,100914.42
2018-11-04T05:48:07.657Z,100916.95
2018-11-04T05:50:35.177Z,100912.42
2018-11-04T05:53:02.613Z,100907.88
2018-11-04T05:55:30.157Z,100905.74
2018-11-04T05:57:57.688Z,100911.47
2018-11-04T06:00:25.205Z,100905.84
2018-11-04T06:02:52.619Z,100906.11
2018-11-04T06:05:20.105Z,100905.52
2018-11-04T06:07:47.624Z,100909.64
2018-11-04T06:10:15.097Z,100906.78
2018-11-04T06:12:42.599Z,100916.26
2018-11-04T06:15:10.061Z,100912.67
2018-11-04T06:17:37.506Z,100909.94
2018-11-04T06:20:06.429Z,100912.58
2018-11-04T06:22:33.859Z,100920.73
2018-11-04T06:25:01.433Z,100917.88
2018-11-04T06:27:29.026Z,100921.66
2018-11-04T06:29:56.493Z,100916.77
2018-11-04T06:32:24.039Z,100917.48
2018-11-04T06:34:51.472Z,100917.75
2018-11-04T06:37:18.942Z,100914.42
2018-11-04T06:39:46.648Z,100910.61
2018-11-04T06:42:14.280Z,100912.78
2018-11-04T06:44:41.740Z,100915.88
2018-11-04T06:47:09.445Z,100916.30
2018-11-04T06:49:36.815Z,100913.54
2018-11-04T06:52:04.869Z,100915.61
2018-11-04T06:54:32.380Z,100917.92
2018-11-04T06:56:59.884Z,100910.84
2018-11-04T06:59:27.367Z,100909.06
2018-11-04T07:01:54.955Z,100914.00
2018-11-04T07:04:23.873Z,100911.63
2018-11-04T07:06:51.331Z,100910.57
2018-11-04T07:09:18.982Z,100903.39
2018-11-04T07:11:47.571Z,100908.45
2018-11-04T07:14:15.229Z,100902.95
2018-11-04T07:16:43.445Z,100903.94
2018-11-04T07:19:11.085Z,100910.68
2018-11-04T07:21:38.597Z,100911.40
2018-11-04T07:24:06.344Z,100910.34
2018-11-04T07:26:34.488Z,100907.47
2018-11-04T07:29:02.033Z,100907.02
2018-11-04T07:31:29.535Z,100908.22
2018-11-04T07:33:57.101Z,100910.00
2018-11-04T07:36:24.689Z,100906.05
2018-11-04T07:38:52.291Z,100905.80
2018-11-04T07:41:20.450Z,100905.17
2018-11-04T07:43:48.321Z,100906.65
2018-11-04T07:46:17.105Z,100905.59
2018-11-04T07:48:44.745Z,100904.99
2018-11-04T07:51:12.200Z,100908.45
2018-11-04T07:53:39.680Z,100906.44
2018-11-04T07:56:07.240Z,100904.19
2018-11-04T07:58:34.695Z,100901.91
2018-11-04T08:01:02.550Z,100900.26
2018-11-04T08:03:30.032Z,100905.19
2018-11-04T08:05:57.526Z,100904.48
2018-11-04T08:08:24.976Z,100898.87
2018-11-04T08:10:52.503Z,100899.95
2018-11-04T08:13:20.024Z,100902.48
2018-11-04T08:15:47.542Z,100899.50
2018-11-04T08:18:15.148Z,100898.17
2018-11-04T08:20:42.587Z,100896.14
2018-11-04T08:23:10.318Z,100902.38
2018-11-04T08:25:37.893Z,100904.40
2018-11-04T08:28:06.254Z,100905.11
2018-11-04T08:30:33.802Z,100903.59
2018-11-04T08:33:01.242Z,100900.47
2018-11-04T08:35:28.770Z,100904.22
2018-11-04T08:37:56.382Z,100906.97
2018-11-04T08:40:23.909Z,100894.64
2018-11-04T08:42:51.377Z,100900.16
2018-11-04T08:45:18.973Z,100903.77
2018-11-04T08:47:46.419Z,100906.06
2018-11-04T08:50:13.885Z,100896.62
2018-11-04T08:52:41.412Z,100891.95
2018-11-04T08:55:09.982Z,100891.59
2018-11-04T08:57:37.514Z,100886.93
2018-11-04T09:00:07.154Z,100884.05
2018-11-04T09:02:34.530Z,100879.48
2018-11-04T09:05:02.314Z,100879.27
2018-11-04T09:07:30.019Z,100871.45
2018-11-04T09:09:57.590Z,100869.92
2018-11-04T09:12:25.046Z,100870.67
2018-11-04T09:14:52.498Z,100882.33
2018-11-04T09:17:20.107Z,100874.66
2018-11-04T09:19:47.641Z,100874.29
2018-11-04T09:22:15.423Z,100874.78
2018-11-04T09:24:42.766Z,100872.74
2018-11-04T09:27:10.246Z,100874.06
2018-11-04T09:29:37.906Z,100872.87
2018-11-04T09:32:05.470Z,100864.20
2018-11-04T09:34:32.974Z,100862.88
2018-11-04T09:37:00.412Z,100851.73
2018-11-04T09:39:27.838Z,100851.25
2018-11-04T09:41:55.373Z,100851.10
2018-11-04T09:44:22.835Z,100853.39
2018-11-04T09:46:50.307Z,100855.66
2018-11-04T09:49:17.848Z,100861.05
2018-11-04T09:51:45.512Z,100860.33
2018-11-04T09:54:13.341Z,100855.98
2018-11-04T09:56:40.963Z,100861.38
2018-11-04T09:59:08.460Z,100859.58
2018-11-04T10:01:35.890Z,100858.73
2018-11-04T10:04:03.508Z,100860.15
2018-11-04T10:06:31.318Z,100858.59
2018-11-04T10:08:58.772Z,100853.28
2018-11-04T10:11:26.219Z,100853.75
2018-11-04T10:13:53.666Z,100851.34
2018-11-04T10:16:21.321Z,100842.91
2018-11-04T10:18:48.919Z,100835.10
2018-11-04T10:21:16.330Z,100843.47
2018-11-04T10:23:43.807Z,100833.36
2018-11-04T10:26:11.234Z,100831.19
2018-11-04T10:28:38.705Z,100821.80
2018-11-04T10:31:06.239Z,100814.14
2018-11-04T10:33:33.774Z,100807.95
2018-11-04T10:36:01.263Z,100806.61
2018-11-04T10:38:28.730Z,100799.72
2018-11-04T10:40:56.350Z,100803.05
2018-11-04T10:43:23.870Z,100800.59
2018-11-04T10:45:51.707Z,100792.24
2018-11-04T10:48:19.162Z,100797.41
2018-11-04T10:50:46.643Z,100792.94
2018-11-04T10:53:14.097Z,100801.96
2018-11-04T10:55:41.667Z,100795.13
2018-11-04T10:58:09.181Z,100791.72
2018-11-04T11:00:42.361Z,100790.57
2018-11-04T11:03:09.969Z,100788.72
2018-11-04T11:05:37.515Z,100785.05
2018-11-04T11:08:05.235Z,100777.85
2018-11-04T11:10:33.072Z,100765.45
2018-11-04T11:13:00.535Z,100767.95
2018-11-04T11:15:28.055Z,100759.62
2018-11-04T11:17:55.487Z,100756.20
2018-11-04T11:20:23.023Z,100753.28
2018-11-04T11:22:50.744Z,100748.72
2018-11-04T11:25:18.227Z,100743.16
2018-11-04T11:27:45.996Z,100734.56
2018-11-04T11:30:13.656Z,100729.64
2018-11-04T11:32:41.223Z,100711.98
2018-11-04T11:35:08.811Z,100707.62
2018-11-04T11:37:36.407Z,100708.51
2018-11-04T11:40:04.709Z,100705.47
2018-11-04T11:42:32.448Z,100701.76
2018-11-04T11:45:00.142Z,100699.28
2018-11-04T11:47:27.695Z,100688.79
2018-11-04T11:49:55.410Z,100685.40
2018-11-04T11:52:23.153Z,100682.34
2018-11-04T11:54:50.925Z,100681.19
2018-11-04T11:57:18.539Z,100675.03
2018-11-04T11:59:46.213Z,100671.97
2018-11-04T12:02:14.017Z,100677.99
2018-11-04T12:04:41.771Z,100675.37
2018-11-04T12:07:09.481Z,100671.73
2018-11-04T12:09:37.429Z,100663.90
2018-11-04T12:12:05.231Z,100664.48
2018-11-04T12:14:32.737Z,100662.27
2018-11-04T12:17:00.504Z,100662.16
2018-11-04T12:19:27.969Z,100657.60
2018-11-04T12:21:55.533Z,100658.01
2018-11-04T12:24:23.051Z,100652.59
2018-11-04T12:26:50.650Z,100639.86
2018-11-04T12:29:18.173Z,100638.95
2018-11-04T12:31:45.856Z,100633.77
2018-11-04T12:34:14.023Z,100636.94
2018-11-04T12:36:41.841Z,100633.87
2018-11-04T12:39:10.290Z,100627.80
2018-11-04T12:41:37.905Z,100628.20
2018-11-04T12:44:06.109Z,100633.22
2018-11-04T12:46:33.631Z,100635.20
2018-11-04T12:49:01.243Z,100635.43
2018-11-04T12:51:29.252Z,100641.84
2018-11-04T12:53:56.854Z,100641.77
2018-11-04T12:56:24.384Z,100636.03
2018-11-04T12:58:52.225Z,100641.41
2018-11-04T13:01:19.907Z,100639.61
2018-11-04T13:03:47.568Z,100624.19
2018-11-04T13:06:15.459Z,100619.19
2018-11-04T13:08:43.141Z,100617.35
2018-11-04T13:11:10.618Z,100610.52
2018-11-04T13:13:38.093Z,100614.70
2018-11-04T13:16:05.685Z,100607.26
2018-11-04T13:18:33.198Z,100603.84
2018-11-04T13:21:00.690Z,100596.16
2018-11-04T13:23:28.186Z,100593.03
2018-11-04T13:25:55.791Z,100587.14
2018-11-04T13:28:23.322Z,100588.66
2018-11-04T13:30:50.889Z,100587.38
2018-11-04T13:33:18.461Z,100581.81
2018-11-04T13:35:45.975Z,100576.56
2018-11-04T13:38:13.443Z,100575.58
2018-11-04T13:40:41.023Z,100572.94
2018-11-04T13:43:08.618Z,100564.31
2018-11-04T13:45:36.217Z,100558.30
2018-11-04T13:48:03.641Z,100556.02
2018-11-04T13:50:31.100Z,100555.52
2018-11-04T13:52:58.620Z,100555.32
2018-11-04T13:55:26.191Z,100552.50
2018-11-04T13:57:53.773Z,100553.48
2018-11-04T14:00:21.565Z,100556.56
2018-11-04T14:02:49.432Z,100555.23
2018-11-04T14:05:17.279Z,100562.49
2018-11-04T14:07:44.817Z,100560.39
2018-11-04T14:10:13.817Z,100559.33
2018-11-04T14:12:42.295Z,100559.39
2018-11-04T14:15:10.301Z,100558.27
2018-11-04T14:17:37.769Z,100550.31
2018-11-04T14:20:07.474Z,100546.72
2018-11-04T14:22:35.262Z,100539.88
2018-11-04T14:25:02.858Z,100540.86
2018-11-04T14:27:30.319Z,100539.67
2018-11-04T14:29:57.899Z,100530.31
2018-11-04T14:32:25.369Z,100532.96
2018-11-04T14:34:52.989Z,100533.40
2018-11-04T14:37:21.019Z,100543.66
2018-11-04T14:39:49.560Z,100536.13
2018-11-04T14:42:17.019Z,100529.77
2018-11-04T14:44:45.212Z,100536.83
2018-11-04T14:47:12.711Z,100539.81
2018-11-04T14:49:40.157Z,100526.66
2018-11-04T14:52:07.724Z,100527.76
2018-11-04T14:54:35.289Z,100528.99
2018-11-04T14:57:02.815Z,100517.63
2018-11-04T14:59:30.340Z,100511.93
2018-11-04T15:01:57.961Z,100517.91
2018-11-04T15:04:25.428Z,100506.16
2018-11-04T15:06:52.952Z,100504.77
2018-11-04T15:09:20.359Z,100502.89
2018-11-04T15:11:47.938Z,100503.92
2018-11-04T15:14:15.436Z,100502.60
2018-11-04T15:16:42.960Z,100509.22
2018-11-04T15:19:10.618Z,100512.42
2018-11-04T15:21:38.017Z,100506.23
2018-11-04T15:24:05.495Z,100499.80
2018-11-04T15:26:33.206Z,100507.23
2018-11-04T15:29:00.723Z,100503.12
2018-11-04T15:31:28.210Z,100500.22
2018-11-04T15:33:55.809Z,100500.91
2018-11-04T15:36:23.284Z,100498.80
2018-11-04T15:38:51.004Z,100502.14
2018-11-04T15:41:18.557Z,100486.47
2018-11-04T15:43:46.136Z,100492.13
2018-11-04T15:46:13.633Z,100490.34
2018-11-04T15:48:41.392Z,100492.20
2018-11-04T15:51:09.021Z,100497.77
2018-11-04T15:53:36.468Z,100498.53
2018-11-04T15:56:04.413Z,100487.50
2018-11-04T15:58:32.189Z,100485.33
2018-11-04T16:00:59.785Z,100481.52
2018-11-04T16:03:27.291Z,100486.22
2018-11-04T16:05:54.947Z,100479.41
2018-11-04T16:08:22.440Z,100474.72
2018-11-04T16:10:49.906Z,100478.63
2018-11-04T16:13:17.349Z,100483.35
2018-11-04T16:15:44.970Z,100480.20
2018-11-04T16:18:12.613Z,100489.58
2018-11-04T16:20:40.140Z,100492.85
2018-11-04T16:23:07.617Z,100488.16
2018-11-04T16:25:35.183Z,100487.78
2018-11-04T16:28:02.724Z,100469.84
2018-11-04T16:30:30.268Z,100463.99
2018-11-04T16:32:57.824Z,100463.58
2018-11-04T16:35:25.387Z,100456.63
2018-11-04T16:37:53.081Z,100459.87
2018-11-04T16:40:20.494Z,100458.70
2018-11-04T16:42:48.044Z,100458.61
2018-11-04T16:45:16.137Z,100461.59
2018-11-04T16:47:43.887Z,100464.47
2018-11-04T16:50:12.575Z,100461.82
2018-11-04T16:52:40.576Z,100457.51
2018-11-04T16:55:08.929Z,100452.91
2018-11-04T16:57:36.574Z,100453.55
2018-11-04T17:00:04.569Z,100458.20
2018-11-04T17:02:32.057Z,100464.59
2018-11-04T17:04:59.711Z,100463.14
2018-11-04T17:07:27.193Z,100469.84
2018-11-04T17:09:54.624Z,100464.75
2018-11-04T17:12:22.135Z,100472.55
2018-11-04T17:14:49.745Z,100461.28
2018-11-04T17:17:17.392Z,100463.84
2018-11-04T17:19:44.968Z,100476.83
2018-11-04T17:22:12.549Z,100473.72
2018-11-04T17:24:40.189Z,100466.26
2018-11-04T17:27:07.952Z,100469.66
2018-11-04T17:29:35.382Z,100473.50
2018-11-04T17:32:03.033Z,100468.02
2018-11-04T17:34:30.728Z,100455.91
2018-11-04T17:36:58.248Z,100454.02
2018-11-04T17:39:25.699Z,100457.59
2018-11-04T17:41:53.524Z,100462.76
2018-11-04T17:44:21.126Z,100468.14
2018-11-04T17:46:48.602Z,100471.48
2018-11-04T17:49:16.066Z,100462.01
2018-11-04T17:51:43.707Z,100466.92
2018-11-04T17:54:11.247Z,100457.73
2018-11-04T17:56:38.665Z,100469.47
2018-11-04T17:59:06.197Z,100453.77
2018-11-04T18:01:33.683Z,100454.58
2018-11-04T18:04:01.343Z,100463.36
2018-11-04T18:06:28.973Z,100470.95
2018-11-04T18:08:56.340Z,100457.92
2018-11-04T18:11:23.866Z,100459.55
2018-11-04T18:13:51.447Z,100448.00
2018-11-04T18:16:18.904Z,100447.03
2018-11-04T18:18:46.371Z,100450.83
2018-11-04T18:21:13.849Z,100447.94
2018-11-04T18:23:41.463Z,100451.40
2018-11-04T18:26:09.005Z,100458.13
2018-11-04T18:28:36.401Z,100449.51
2018-11-04T18:31:04.229Z,100445.26
2018-11-04T18:33:31.765Z,100442.90
2018-11-04T18:35:59.248Z,100444.09
2018-11-04T18:38:26.659Z,100440.55
2018-11-04T18:40:54.304Z,100433.71
2018-11-04T18:43:21.963Z,100427.45
2018-11-04T18:45:49.477Z,100424.23
2018-11-04T18:48:17.275Z,100435.34
2018-11-04T18:50:44.845Z,100427.52
2018-11-04T18:53:12.544Z,100429.56
2018-11-04T18:55:40.107Z,100431.70
2018-11-04T18:58:07.594Z,100425.47
2018-11-04T19:00:35.111Z,100435.16
2018-11-04T19:03:02.633Z,100437.73
2018-11-04T19:05:30.253Z,100435.87
2018-11-04T19:07:57.748Z,100437.13
2018-11-04T19:10:25.415Z,100434.70
2018-11-04T19:12:53.095Z,100442.35
2018-11-04T19:15:20.597Z,100451.30
2018-11-04T19:17:48.069Z,100449.26
2018-11-04T19:20:15.991Z,100450.58
2018-11-04T19:22:43.600Z,100451.30
2018-11-04T19:25:12.497Z,100446.14
2018-11-04T19:27:40.292Z,100438.56
2018-11-04T19:30:10.488Z,100437.88
2018-11-04T19:32:38.275Z,100434.33
2018-11-04T19:35:06.667Z,100435.17
2018-11-04T19:37:35.415Z,100424.66
2018-11-04T19:40:03.662Z,100430.54
2018-11-04T19:42:31.480Z,100436.20
2018-11-04T19:44:58.767Z,100433.22
2018-11-04T19:47:26.418Z,100424.91
2018-11-04T19:49:53.876Z,100432.66
2018-11-04T19:52:21.414Z,100427.77
2018-11-04T19:54:48.934Z,100423.52
2018-11-04T19:57:16.431Z,100424.49
2018-11-04T19:59:43.872Z,100419.05
2018-11-04T20:02:11.885Z,100417.61
2018-11-04T20:04:39.453Z,100420.17
2018-11-04T20:07:07.028Z,100426.55
2018-11-04T20:09:34.466Z,100417.27
2018-11-04T20:12:01.963Z,100415.27
2018-11-04T20:14:29.490Z,100429.45
2018-11-04T20:16:57.376Z,100425.98
2018-11-04T20:19:30.744Z,100429.45
2018-11-04T20:21:58.187Z,100425.59
2018-11-04T20:24:31.433Z,100426.11
2018-11-04T20:26:59.032Z,100422.27
2018-11-04T20:29:26.553Z,100428.52
2018-11-04T20:31:59.713Z,100424.34
2018-11-04T20:34:27.340Z,100419.78
2018-11-04T20:36:55.801Z,100415.94
2018-11-04T20:39:29.567Z,100414.67
2018-11-04T20:41:57.526Z,100416.34
2018-11-04T20:44:25.600Z,100408.08
2018-11-04T20:46:53.102Z,100405.09
2018-11-04T20:49:26.207Z,100397.98
2018-11-04T20:51:53.962Z,100396.78
2018-11-04T20:54:21.465Z,100388.39
2018-11-04T20:56:54.668Z,100384.20
2018-11-04T20:59:22.232Z,100387.19
2018-11-04T21:01:50.054Z,100376.72
2018-11-04T21:04:17.506Z,100381.66
2018-11-04T21:06:45.023Z,100377.95
2018-11-04T21:09:12.528Z,100379.14
2018-11-04T21:11:40.214Z,100370.52
2018-11-04T21:14:07.701Z,100358.64
2018-11-04T21:16:35.338Z,100345.66
2018-11-04T21:19:02.812Z,100351.35
2018-11-04T21:21:31.470Z,100351.51
2018-11-04T21:23:58.968Z,100361.80
2018-11-04T21:26:26.618Z,100360.69
2018-11-04T21:28:54.251Z,100353.17
2018-11-04T21:31:28.643Z,100348.48
2018-11-04T21:33:56.386Z,100351.28
2018-11-04T21:36:25.499Z,100347.73
2018-11-04T21:38:53.129Z,100336.13
2018-11-04T21:41:20.715Z,100336.19
2018-11-04T21:43:48.590Z,100341.13
2018-11-04T21:46:16.088Z,100339.65
2018-11-04T21:48:44.335Z,100349.52
2018-11-04T21:51:11.943Z,100348.89
2018-11-04T21:53:39.348Z,100344.52
2018-11-04T21:56:07.730Z,100347.04
2018-11-04T21:58:35.262Z,100346.41
2018-11-04T22:01:02.805Z,100342.23
2018-11-04T22:03:30.478Z,100344.14
2018-11-04T22:05:58.129Z,100340.18
2018-11-04T22:08:25.660Z,100323.98
2018-11-04T22:10:53.269Z,100331.03
2018-11-04T22:13:20.866Z,100325.63
2018-11-04T22:15:48.570Z,100325.13
2018-11-04T22:18:16.144Z,100326.66
2018-11-04T22:20:43.709Z,100322.58
2018-11-04T22:23:11.229Z,100327.86
2018-11-04T22:25:39.054Z,100329.18
2018-11-04T22:28:06.670Z,100325.22
2018-11-04T22:30:34.301Z,100322.23
2018-11-04T22:33:01.842Z,100321.83
2018-11-04T22:35:29.575Z,100309.78
2018-11-04T22:37:57.162Z,100312.42
2018-11-04T22:40:24.654Z,100313.90
2018-11-04T22:42:52.355Z,100318.84
2018-11-04T22:45:19.926Z,100317.86
2018-11-04T22:47:47.421Z,100322.30
2018-11-04T22:50:15.574Z,100319.18
2018-11-04T22:52:43.462Z,100314.38
2018-11-04T22:55:12.136Z,100322.30
2018-11-04T22:57:39.640Z,100316.38
2018-11-04T23:00:13.745Z,100308.45
2018-11-04T23:02:41.629Z,100306.10
2018-11-04T23:05:14.838Z,100305.06
2018-11-04T23:07:42.362Z,100290.19
2018-11-04T23:10:09.746Z,100292.83
2018-11-04T23:12:37.374Z,100281.70
2018-11-04T23:15:05.218Z,100272.08
2018-11-04T23:17:32.710Z,100274.53
2018-11-04T23:20:00.241Z,100263.19
2018-11-04T23:22:27.702Z,100265.11
2018-11-04T23:24:55.342Z,100265.83
2018-11-04T23:27:22.850Z,100260.89
2018-11-04T23:29:50.473Z,100257.69
2018-11-04T23:32:18.054Z,100245.94
2018-11-04T23:34:45.512Z,100247.59
2018-11-04T23:37:12.946Z,100248.70
2018-11-04T23:39:40.346Z,100248.35
2018-11-04T23:42:07.896Z,100240.43
2018-11-04T23:44:35.393Z,100233.23
2018-11-04T23:47:02.969Z,100229.52
2018-11-04T23:49:31.350Z,100235.66
2018-11-04T23:51:58.809Z,100239.52
2018-11-04T23:54:26.251Z,100243.13
2018-11-04T23:56:53.885Z,100242.45
2018-11-04T23:59:21.369Z,100238.70
